Time;durP1;ratioP1;P1;durP2;ratioP2;P2;SDS_P1;SDS_P2;PMS_P1;PMS_P2;Temp;Humidity;BMP_temperature;BMP_pressure;BME280_temperature;BME280_humidity;BME280_pressure;Samples;Min_cycle;Max_cycle;Signal;HPM_P1;HPM_P2
2022/04/21 00:00:55;;;;;;;0.60;0.60;;;11.90;94.70;;;-141.50;100.00;62695.63;4965658;28;24453;-64
2022/04/21 00:03:22;;;;;;;0.70;0.70;;;11.90;95.00;;;-141.50;100.00;62695.63;4949871;29;24832;-64
2022/04/21 00:05:49;;;;;;;0.40;0.32;;;11.70;95.80;;;-141.50;100.00;62695.63;4952319;28;24525;-63
2022/04/21 00:08:17;;;;;;;0.40;0.30;;;11.80;95.90;;;-141.50;100.00;62695.63;4970529;28;24465;-66
2022/04/21 00:10:44;;;;;;;0.40;0.30;;;11.80;96.50;;;-141.50;100.00;62695.63;4971341;28;24510;-65
2022/04/21 00:13:11;;;;;;;0.40;0.30;;;11.70;96.90;;;-141.50;100.00;62695.63;4971406;28;24444;-66
2022/04/21 00:15:39;;;;;;;0.40;0.40;;;11.60;97.60;;;-141.50;100.00;62695.63;4967359;28;24452;-64
2022/04/21 00:18:06;;;;;;;0.40;0.30;;;11.70;97.80;;;-141.50;100.00;62695.63;4963330;28;24445;-65
2022/04/21 00:20:34;;;;;;;0.90;0.80;;;11.60;98.30;;;-141.50;100.00;62695.63;4964577;28;24442;-66
2022/04/21 00:25:46;;;;;;;0.70;0.70;;;11.50;99.30;;;-141.50;100.00;62695.63;4968765;28;24555;-66
2022/04/21 00:28:13;;;;;;;0.40;0.30;;;11.40;99.70;;;-141.50;100.00;62695.63;4971636;28;24609;-66
2022/04/21 00:30:40;;;;;;;0.40;0.30;;;11.40;99.90;;;-141.50;100.00;62695.63;4960380;28;24872;-66
2022/04/21 00:33:07;;;;;;;0.40;0.40;;;11.30;99.90;;;-141.50;100.00;62695.63;4964189;28;24444;-68
2022/04/21 00:35:34;;;;;;;0.40;0.30;;;11.30;99.90;;;-141.50;100.00;62695.63;4953565;28;24449;-66
2022/04/21 00:38:01;;;;;;;0.40;0.30;;;11.20;99.90;;;-141.50;100.00;62695.63;4963651;28;24426;-66
2022/04/21 00:40:31;;;;;;;0.40;0.30;;;11.20;99.90;;;-141.50;100.00;62695.63;4953283;28;25025;-66
2022/04/21 00:42:59;;;;;;;0.40;0.30;;;11.20;99.90;;;-141.50;100.00;62695.63;4969881;28;24449;-66
2022/04/21 00:45:27;;;;;;;0.40;0.30;;;11.20;99.90;;;-141.50;100.00;62695.63;4969956;28;24509;-67
2022/04/21 00:47:57;;;;;;;0.40;0.30;;;11.20;99.90;;;-141.50;100.00;62695.63;4957968;28;25011;-66
2022/04/21 00:50:44;;;;;;;1.02;0.73;;;11.30;99.90;;;-141.50;100.00;62695.63;4950627;28;25029;-66
2022/04/21 00:53:11;;;;;;;0.40;0.30;;;11.20;99.90;;;-141.50;100.00;62695.63;4951528;28;24461;-66
2022/04/21 00:55:39;;;;;;;0.40;0.30;;;11.20;99.90;;;-141.50;100.00;62695.63;4950250;28;24480;-66
2022/04/21 00:58:08;;;;;;;0.40;0.30;;;11.10;99.90;;;-141.50;100.00;62695.63;4961092;28;24930;-65
2022/04/21 01:00:35;;;;;;;0.40;0.30;;;11.00;99.90;;;-141.50;100.00;62695.63;4974914;23;24475;-66
2022/04/21 01:03:07;;;;;;;0.40;0.30;;;11.00;99.90;;;-141.50;100.00;62695.63;4977784;28;24540;-65
2022/04/21 01:05:34;;;;;;;0.40;0.38;;;10.90;99.90;;;-141.50;100.00;62695.63;4956303;28;24425;-65
2022/04/21 01:08:08;;;;;;;1.00;0.90;;;10.90;99.90;;;-141.50;100.00;62695.63;4988773;28;24512;-66
2022/04/21 01:10:42;;;;;;;0.40;0.30;;;10.80;99.90;;;-141.50;100.00;62695.63;4961539;28;24553;-65
2022/04/21 01:13:12;;;;;;;1.10;1.00;;;10.70;99.90;;;-141.50;100.00;62695.63;4969876;28;24432;-66
2022/04/21 01:15:40;;;;;;;0.40;0.30;;;10.70;99.90;;;-141.50;100.00;62695.63;4937234;28;24429;-66
2022/04/21 01:18:09;;;;;;;0.50;0.50;;;10.70;99.90;;;-141.50;100.00;62695.63;4929003;28;24441;-65
2022/04/21 01:20:36;;;;;;;0.70;0.65;;;10.60;99.90;;;-141.50;100.00;62695.63;4970262;28;24804;-66
2022/04/21 01:23:03;;;;;;;0.40;0.30;;;10.60;99.90;;;-141.50;100.00;62695.63;4967422;28;24473;-66
2022/04/21 01:25:40;;;;;;;0.47;0.35;;;10.60;99.90;;;-141.50;100.00;62695.63;4967916;28;24444;-65
2022/04/21 01:28:10;;;;;;;0.40;0.30;;;10.60;99.90;;;-141.50;100.00;62695.63;4970050;28;24420;-65
2022/04/21 01:30:38;;;;;;;0.40;0.30;;;10.50;99.90;;;-141.50;100.00;62695.63;4969477;28;24552;-66
2022/04/21 01:33:06;;;;;;;0.40;0.30;;;10.60;99.90;;;-141.50;100.00;62695.63;4952058;28;24923;-65
2022/04/21 01:35:33;;;;;;;0.70;0.70;;;10.50;99.90;;;-141.50;100.00;62695.63;4952100;28;24430;-65
2022/04/21 01:43:30;;;;;;;0.70;0.60;;;10.40;99.90;;;-141.50;100.00;62695.63;4966905;28;24446;-66
2022/04/21 01:45:57;;;;;;;0.40;0.40;;;10.40;99.90;;;-141.50;100.00;62695.63;4969347;28;24517;-64
2022/04/21 01:48:24;;;;;;;0.40;0.30;;;10.40;99.90;;;-141.50;100.00;62695.63;4935186;28;24456;-65
2022/04/21 01:50:51;;;;;;;0.50;0.50;;;10.50;99.90;;;-141.50;100.00;62695.63;4969603;28;24425;-65
2022/04/21 01:53:18;;;;;;;0.40;0.30;;;10.50;99.90;;;-141.50;100.00;62695.63;4969295;28;24449;-65
2022/04/21 01:55:46;;;;;;;0.40;0.30;;;10.40;99.90;;;-141.50;100.00;62695.63;4953278;28;24791;-66
2022/04/21 01:58:14;;;;;;;0.40;0.30;;;10.40;99.90;;;-141.50;100.00;62695.63;4968268;28;24823;-65
2022/04/21 02:00:40;;;;;;;0.40;0.30;;;10.40;99.90;;;-141.50;100.00;62695.63;4952045;28;24445;-66
2022/04/21 02:03:07;;;;;;;1.60;0.98;;;10.40;99.90;;;-141.50;100.00;62695.63;4967458;28;24504;-65
2022/04/21 02:05:34;;;;;;;0.80;0.80;;;10.30;99.90;;;-141.50;100.00;62695.63;4956637;28;24540;-66
2022/04/21 02:08:02;;;;;;;1.30;1.20;;;10.30;99.90;;;-141.50;100.00;62695.63;4970676;28;24445;-65
2022/04/21 02:10:30;;;;;;;0.40;0.30;;;10.40;99.90;;;-141.50;100.00;62695.63;4970245;28;24588;-66
2022/04/21 02:12:58;;;;;;;0.40;0.30;;;10.50;99.90;;;-141.50;100.00;62695.63;4971173;28;24626;-65
2022/04/21 02:15:25;;;;;;;0.70;0.70;;;10.40;99.90;;;-141.50;100.00;62695.63;4969644;28;24961;-65
2022/04/21 02:17:52;;;;;;;0.40;0.30;;;10.20;99.90;;;-141.50;100.00;62695.63;4950617;28;24544;-66
2022/04/21 02:20:20;;;;;;;1.10;0.80;;;10.10;99.90;;;-141.50;100.00;62695.63;4953214;28;24803;-65
2022/04/21 02:22:48;;;;;;;0.70;0.70;;;10.10;99.90;;;-141.50;100.00;62695.63;4968249;28;24532;-65
2022/04/21 02:25:16;;;;;;;0.70;0.63;;;10.00;99.90;;;-141.50;100.00;62695.63;4953653;28;24517;-65
2022/04/21 02:27:46;;;;;;;0.40;0.30;;;10.00;99.90;;;-141.50;100.00;62695.63;4951884;28;24449;-65
2022/04/21 02:30:16;;;;;;;0.40;0.30;;;10.00;99.90;;;-141.50;100.00;62695.63;4953724;28;24623;-65
2022/04/21 02:32:43;;;;;;;0.40;0.30;;;10.00;99.90;;;-141.50;100.00;62695.63;4951695;28;24441;-65
2022/04/21 02:35:12;;;;;;;0.40;0.30;;;10.00;99.90;;;-141.50;100.00;62695.63;4953435;28;24496;-65
2022/04/21 02:37:45;;;;;;;0.60;0.50;;;10.00;99.90;;;-141.50;100.00;62695.63;4951072;28;24967;-66
2022/04/21 02:40:14;;;;;;;1.20;1.10;;;10.00;99.90;;;-141.50;100.00;62695.63;4969626;28;24560;-65
2022/04/21 02:42:41;;;;;;;0.40;0.30;;;9.90;99.90;;;-141.50;100.00;62695.63;4953432;28;24987;-66
2022/04/21 02:45:12;;;;;;;0.40;0.38;;;9.80;99.90;;;-141.50;100.00;62695.63;4955315;28;24920;-65
2022/04/21 02:47:41;;;;;;;0.40;0.30;;;9.80;99.90;;;-141.50;100.00;62695.63;4956707;28;24424;-66
2022/04/21 02:50:09;;;;;;;0.40;0.30;;;9.80;99.90;;;-141.50;100.00;62695.63;4971405;28;24472;-65
2022/04/21 02:52:41;;;;;;;0.90;0.60;;;9.90;99.90;;;-141.50;100.00;62695.63;4956194;28;24974;-65
2022/04/21 02:57:55;;;;;;;0.60;0.60;;;9.80;99.90;;;-141.50;100.00;62695.63;4945960;28;25320;-66
2022/04/21 03:00:23;;;;;;;0.40;0.30;;;9.70;99.90;;;-141.50;100.00;62695.63;4954932;28;24469;-66
2022/04/21 03:02:49;;;;;;;1.00;0.60;;;9.70;99.90;;;-141.50;100.00;62695.63;4971395;28;24537;-65
2022/04/21 03:05:17;;;;;;;0.40;0.40;;;9.70;99.90;;;-141.50;100.00;62695.63;4955394;28;24442;-65
2022/04/21 03:07:44;;;;;;;0.70;0.70;;;9.70;99.90;;;-141.50;100.00;62695.63;4972110;28;24986;-65
2022/04/21 03:10:11;;;;;;;0.40;0.30;;;9.70;99.90;;;-141.50;100.00;62695.63;4956473;28;24450;-66
2022/04/21 03:12:38;;;;;;;0.40;0.30;;;9.70;99.90;;;-141.50;100.00;62695.63;4971105;28;25323;-65
2022/04/21 03:15:06;;;;;;;0.40;0.30;;;9.70;99.90;;;-141.50;100.00;62695.63;4972270;28;24442;-67
2022/04/21 03:17:33;;;;;;;0.40;0.30;;;9.70;99.90;;;-141.50;100.00;62695.63;4973156;28;24418;-65
2022/04/21 03:20:00;;;;;;;0.40;0.30;;;9.70;99.90;;;-141.50;100.00;62695.63;4971409;28;24545;-66
2022/04/21 03:25:15;;;;;;;0.40;0.40;;;9.80;99.90;;;-141.50;100.00;62695.63;4956793;28;24455;-65
2022/04/21 03:27:46;;;;;;;0.40;0.32;;;9.70;99.90;;;-141.50;100.00;62695.63;4971370;28;25017;-65
2022/04/21 03:30:13;;;;;;;0.40;0.30;;;9.60;99.90;;;-141.50;100.00;62695.63;4971859;28;24464;-65
2022/04/21 03:32:42;;;;;;;0.40;0.30;;;9.70;99.90;;;-141.50;100.00;62695.63;4972088;28;24457;-65
2022/04/21 03:35:09;;;;;;;3.90;0.90;;;9.70;99.90;;;-141.50;100.00;62695.63;4971658;28;24437;-66
2022/04/21 03:37:36;;;;;;;0.40;0.40;;;9.70;99.90;;;-141.50;100.00;62695.63;4972279;28;24413;-65
2022/04/21 03:40:04;;;;;;;0.40;0.30;;;9.70;99.90;;;-141.50;100.00;62695.63;4971055;28;24961;-65
2022/04/21 03:42:31;;;;;;;0.40;0.30;;;9.70;99.90;;;-141.50;100.00;62695.63;4972289;28;24410;-65
2022/04/21 03:45:02;;;;;;;1.00;0.60;;;9.60;99.90;;;-141.50;100.00;62695.63;4959819;28;24951;-65
2022/04/21 03:47:28;;;;;;;0.50;0.50;;;9.50;99.90;;;-141.50;100.00;62695.63;4971010;28;24540;-66
2022/04/21 03:49:56;;;;;;;0.40;0.30;;;9.60;99.90;;;-141.50;100.00;62695.63;4966249;28;24946;-65
2022/04/21 03:52:23;;;;;;;0.40;0.30;;;9.50;99.90;;;-141.50;100.00;62695.63;4971634;28;24434;-66
2022/04/21 03:54:50;;;;;;;0.40;0.30;;;9.50;99.90;;;-141.50;100.00;62695.63;4971239;28;25018;-66
2022/04/21 03:57:17;;;;;;;0.40;0.30;;;9.50;99.90;;;-141.50;100.00;62695.63;4953536;28;24537;-66
2022/04/21 03:59:44;;;;;;;0.40;0.30;;;9.40;99.90;;;-141.50;100.00;62695.63;4971775;28;24429;-65
2022/04/21 04:02:11;;;;;;;0.40;0.40;;;9.60;99.90;;;-141.50;100.00;62695.63;4971344;28;24512;-66
2022/04/21 04:04:38;;;;;;;0.40;0.30;;;9.40;99.90;;;-141.50;100.00;62695.63;4964476;28;24445;-65
2022/04/21 04:12:42;;;;;;;0.40;0.30;;;9.40;99.90;;;-141.50;100.00;62695.63;4971049;28;24428;-65
2022/04/21 04:15:10;;;;;;;0.40;0.30;;;9.30;99.90;;;-141.50;100.00;62695.63;4952290;28;24456;-66
2022/04/21 04:17:37;;;;;;;0.40;0.40;;;9.40;99.90;;;-141.50;100.00;62695.63;4971239;28;24455;-65
2022/04/21 04:20:06;;;;;;;0.30;0.20;;;9.40;99.90;;;-141.50;100.00;62695.63;4971075;28;20579;-65
2022/04/21 04:22:40;;;;;;;0.43;0.40;;;9.40;99.90;;;-141.50;100.00;62695.63;4971741;28;20661;-65
2022/04/21 04:25:09;;;;;;;0.30;0.30;;;9.30;99.90;;;-141.50;100.00;62695.63;4954083;28;20666;-65
2022/04/21 04:27:36;;;;;;;0.30;0.30;;;9.30;99.90;;;-141.50;100.00;62695.63;4972508;28;20638;-66
2022/04/21 04:30:08;;;;;;;0.30;0.30;;;9.40;99.90;;;-141.50;100.00;62695.63;4971944;28;20667;-65
2022/04/21 04:32:36;;;;;;;0.30;0.30;;;9.30;99.90;;;-141.50;100.00;62695.63;4972226;28;20650;-65
2022/04/21 04:35:04;;;;;;;0.30;0.30;;;9.20;99.90;;;-141.50;100.00;62695.63;4954304;28;20657;-65
2022/04/21 04:37:31;;;;;;;0.30;0.30;;;9.20;99.90;;;-141.50;100.00;62695.63;4954181;28;20648;-65
2022/04/21 04:39:59;;;;;;;0.30;0.30;;;9.20;99.90;;;-141.50;100.00;62695.63;4970815;28;20666;-65
2022/04/21 04:42:28;;;;;;;0.30;0.30;;;9.20;99.90;;;-141.50;100.00;62695.63;4971125;28;21043;-65
2022/04/21 04:47:41;;;;;;;0.30;0.20;;;9.20;99.90;;;-141.50;100.00;62695.63;4966050;28;20643;-65
2022/04/21 04:50:09;;;;;;;0.30;0.20;;;9.20;99.90;;;-141.50;100.00;62695.63;4952926;28;20675;-65
2022/04/21 04:52:36;;;;;;;0.30;0.30;;;9.20;99.90;;;-141.50;100.00;62695.63;4956551;28;21263;-65
2022/04/21 04:55:04;;;;;;;0.30;0.30;;;9.20;99.90;;;-141.50;100.00;62695.63;4971378;28;20932;-63
2022/04/21 04:57:31;;;;;;;0.30;0.30;;;9.20;99.90;;;-141.50;100.00;62695.63;4953757;28;20635;-65
2022/04/21 05:00:04;;;;;;;0.30;0.30;;;9.30;99.90;;;-141.50;100.00;62695.63;4972491;28;20687;-65
2022/04/21 05:02:31;;;;;;;0.30;0.30;;;9.40;99.90;;;-141.50;100.00;62695.63;4952754;28;20647;-65
2022/04/21 05:04:58;;;;;;;0.30;0.20;;;9.40;99.90;;;-141.50;100.00;62695.63;4970152;28;20650;-66
2022/04/21 05:07:25;;;;;;;0.73;0.73;;;9.40;99.90;;;-141.50;100.00;62695.63;4969917;28;21028;-65
2022/04/21 05:09:52;;;;;;;0.87;0.87;;;9.40;99.90;;;-141.50;100.00;62695.63;4970434;28;20675;-65
2022/04/21 05:12:18;;;;;;;0.30;0.30;;;9.50;99.90;;;-141.50;100.00;62695.63;4953969;28;20637;-65
2022/04/21 05:14:46;;;;;;;0.30;0.30;;;9.50;99.90;;;-141.50;100.00;62695.63;4970513;28;20734;-65
2022/04/21 05:17:13;;;;;;;0.40;0.40;;;9.80;99.90;;;-141.50;100.00;62695.63;4971508;28;20737;-65
2022/04/21 05:19:40;;;;;;;0.30;0.20;;;10.20;99.90;;;-141.50;100.00;62695.63;4970413;28;20666;-65
2022/04/21 05:22:12;;;;;;;0.30;0.20;;;10.50;99.90;;;-141.50;100.00;62695.63;4969281;28;21280;-65
2022/04/21 05:24:40;;;;;;;0.30;0.20;;;11.10;99.90;;;-141.50;100.00;62695.63;4953726;28;20639;-65
2022/04/21 05:27:08;;;;;;;0.30;0.30;;;11.40;99.90;;;-141.50;100.00;62695.63;4952691;28;21105;-65
2022/04/21 05:32:28;;;;;;;0.30;0.20;;;12.50;99.90;;;-141.50;100.00;62695.63;4969899;28;20631;-65
2022/04/21 05:34:55;;;;;;;0.30;0.27;;;13.00;99.80;;;-141.50;100.00;62695.63;4952534;28;20777;-66
2022/04/21 05:37:23;;;;;;;0.30;0.30;;;13.50;98.40;;;-141.50;100.00;62695.63;4971272;28;20607;-65
2022/04/21 05:39:50;;;;;;;0.30;0.20;;;14.00;96.80;;;-141.50;100.00;62695.63;4970371;28;21339;-66
2022/04/21 05:42:25;;;;;;;0.30;0.30;;;14.60;95.20;;;-141.50;100.00;62695.63;4970863;28;20642;-65
2022/04/21 05:44:53;;;;;;;0.30;0.30;;;;;;;-141.50;100.00;62695.63;4952551;28;20621;-65
2022/04/21 05:47:21;;;;;;;3.50;2.10;;;15.20;92.50;;;-141.50;100.00;62695.63;4970727;28;20649;-65
2022/04/21 05:49:48;;;;;;;0.30;0.30;;;15.50;91.90;;;-141.50;100.00;62695.63;4952905;28;20686;-65
2022/04/21 05:52:16;;;;;;;0.30;0.30;;;16.10;90.80;;;-141.50;100.00;62695.63;4971573;28;20726;-65
2022/04/21 05:54:44;;;;;;;0.47;0.47;;;16.20;90.10;;;-141.50;100.00;62695.63;4952231;28;20680;-65
2022/04/21 05:57:10;;;;;;;0.30;0.30;;;16.60;87.60;;;-141.50;100.00;62695.63;4969547;28;20662;-65
2022/04/21 05:59:37;;;;;;;0.30;0.30;;;16.10;86.50;;;-141.50;100.00;62695.63;4970075;28;20658;-65
2022/04/21 06:02:06;;;;;;;0.30;0.30;;;15.60;88.40;;;-141.50;100.00;62695.63;4970976;28;20623;-65
2022/04/21 06:04:33;;;;;;;0.30;0.30;;;15.50;89.60;;;-141.50;100.00;62695.63;4951217;28;20650;-65
2022/04/21 06:07:00;;;;;;;0.40;0.40;;;15.60;88.40;;;-141.50;100.00;62695.63;4952368;28;24468;-65
2022/04/21 06:09:27;;;;;;;0.40;0.30;;;15.50;88.90;;;-141.50;100.00;62695.63;4968675;28;24795;-65
2022/04/21 06:11:53;;;;;;;0.40;0.30;;;15.30;89.10;;;-141.50;100.00;62695.63;4965565;28;24587;-67
2022/04/21 06:14:20;;;;;;;0.30;0.30;;;15.10;90.10;;;-141.50;100.00;62695.63;4952238;28;20232;-65
2022/04/21 06:16:47;;;;;;;0.30;0.30;;;15.00;90.90;;;-141.50;100.00;62695.63;4969194;28;20634;-65
2022/04/21 06:19:14;;;;;;;0.30;0.30;;;15.00;91.10;;;-141.50;100.00;62695.63;4972709;28;20606;-66
2022/04/21 06:21:41;;;;;;;0.30;0.30;;;15.00;91.30;;;-141.50;100.00;62695.63;4972098;28;20631;-66
2022/04/21 06:24:08;;;;;;;0.30;0.30;;;14.70;92.00;;;-141.50;100.00;62695.63;4970647;28;20645;-66
2022/04/21 06:26:36;;;;;;;0.30;0.30;;;14.70;92.20;;;-141.50;100.00;62695.63;4972932;28;20642;-66
2022/04/21 06:29:03;;;;;;;0.30;0.20;;;14.80;92.10;;;-141.50;100.00;62695.63;4973192;28;21008;-66
2022/04/21 06:31:30;;;;;;;0.30;0.30;;;14.90;92.20;;;-141.50;100.00;62695.63;4970711;28;21118;-65
2022/04/21 06:33:58;;;;;;;0.30;0.30;;;14.80;91.90;;;-141.50;100.00;62695.63;4971523;28;20645;-66
2022/04/21 06:36:25;;;;;;;0.30;0.27;;;14.80;92.20;;;-141.50;100.00;62695.63;4967658;28;20635;-65
2022/04/21 06:38:52;;;;;;;0.30;0.20;;;14.90;92.10;;;-141.50;100.00;62695.63;4968531;28;20631;-65
2022/04/21 06:41:19;;;;;;;0.30;0.30;;;14.80;92.20;;;-141.50;100.00;62695.63;4972425;28;20662;-65
2022/04/21 06:49:17;;;;;;;0.30;0.30;;;14.70;92.50;;;-141.50;100.00;62695.63;4971400;28;20677;-65
2022/04/21 06:51:44;;;;;;;0.30;0.20;;;14.90;92.40;;;-141.50;100.00;62695.63;4972699;28;20639;-64
2022/04/21 06:54:11;;;;;;;0.30;0.30;;;15.00;92.10;;;-141.50;100.00;62695.63;4970911;28;20623;-65
2022/04/21 06:56:38;;;;;;;0.30;0.30;;;14.90;92.50;;;-141.50;100.00;62695.63;4973844;28;20599;-65
2022/04/21 06:59:07;;;;;;;0.30;0.30;;;15.10;92.70;;;-141.50;100.00;62695.63;4955273;28;20649;-66
2022/04/21 07:01:35;;;;;;;0.30;0.30;;;16.20;91.90;;;-141.50;100.00;62695.63;4953590;28;20757;-68
2022/04/21 07:04:02;;;;;;;0.30;0.30;;;18.60;84.50;;;-141.50;100.00;62695.63;4991042;23;20699;-65
2022/04/21 07:06:29;;;;;;;0.30;0.30;;;18.90;78.20;;;-141.50;100.00;62695.63;4972696;28;20639;-63
2022/04/21 07:08:56;;;;;;;0.30;0.30;;;18.10;78.80;;;-141.50;100.00;62695.63;4971762;28;20705;-66
2022/04/21 07:11:23;;;;;;;0.30;0.30;;;17.60;80.10;;;-141.50;100.00;62695.63;4973881;28;20655;-66
2022/04/21 07:13:51;;;;;;;0.30;0.30;;;17.00;81.60;;;-141.50;100.00;62695.63;4971932;28;20739;-65
2022/04/21 07:16:19;;;;;;;0.47;0.47;;;16.70;82.70;;;-141.50;100.00;62695.63;4972376;28;20684;-67
2022/04/21 07:18:46;;;;;;;0.30;0.30;;;16.30;84.20;;;-141.50;100.00;62695.63;4971560;28;20661;-68
2022/04/21 07:21:13;;;;;;;0.30;0.30;;;16.30;85.80;;;-141.50;100.00;62695.63;4972103;28;20745;-66
2022/04/21 07:23:40;;;;;;;1.70;1.60;;;16.00;86.30;;;-141.50;100.00;62695.63;4968657;28;21263;-68
2022/04/21 07:26:06;;;;;;;0.30;0.30;;;15.70;87.70;;;-141.50;100.00;62695.63;4973677;28;20637;-66
2022/04/21 07:28:34;;;;;;;0.30;0.30;;;15.50;89.70;;;-141.50;100.00;62695.63;4972059;28;20778;-67
2022/04/21 07:31:01;;;;;;;0.30;0.30;;;15.30;90.70;;;-141.50;100.00;62695.63;4973367;28;20666;-65
2022/04/21 07:33:28;;;;;;;0.40;0.40;;;15.10;91.20;;;-141.50;100.00;62695.63;4968650;28;20658;-66
2022/04/21 07:35:55;;;;;;;0.30;0.30;;;15.10;91.50;;;-141.50;100.00;62695.63;4972884;28;20634;-66
2022/04/21 07:38:23;;;;;;;0.30;0.30;;;15.30;91.30;;;-141.50;100.00;62695.63;4971007;28;21007;-66
2022/04/21 07:40:53;;;;;;;0.30;0.30;;;15.40;91.10;;;-141.50;100.00;62695.63;4971856;28;21017;-65
2022/04/21 07:43:21;;;;;;;0.30;0.30;;;15.40;91.30;;;-141.50;100.00;62695.63;4972210;28;20647;-65
2022/04/21 07:45:51;;;;;;;0.30;0.30;;;15.20;91.30;;;-141.50;100.00;62695.63;4971929;28;20733;-66
2022/04/21 07:48:18;;;;;;;0.30;0.30;;;15.00;91.80;;;-141.50;100.00;62695.63;4973399;28;21207;-65
2022/04/21 07:50:45;;;;;;;0.30;0.30;;;14.60;92.40;;;-141.50;100.00;62695.63;4971011;28;20667;-65
2022/04/21 07:53:20;;;;;;;0.30;0.30;;;14.40;93.30;;;-141.50;100.00;62695.63;4955423;28;20665;-67
2022/04/21 07:55:52;;;;;;;0.30;0.30;;;14.40;93.60;;;-141.50;100.00;62695.63;4971432;28;20653;-64
2022/04/21 07:58:21;;;;;;;0.30;0.30;;;14.30;94.00;;;-141.50;100.00;62695.63;4971117;28;20631;-65
2022/04/21 08:00:48;;;;;;;0.30;0.30;;;14.40;94.50;;;-141.50;100.00;62695.63;4965834;28;21085;-65
2022/04/21 08:03:18;;;;;;;0.30;0.30;;;14.30;94.60;;;-141.50;100.00;62695.63;4963017;28;20675;-65
2022/04/21 08:05:45;;;;;;;0.40;0.40;;;14.20;94.90;;;-141.50;100.00;62695.63;4953926;28;20658;-65
2022/04/21 08:08:13;;;;;;;0.30;0.27;;;14.10;95.60;;;-141.50;100.00;62695.63;4970416;28;21190;-65
2022/04/21 08:10:39;;;;;;;0.30;0.20;;;14.10;95.60;;;-141.50;100.00;62695.63;4971822;28;20659;-65
2022/04/21 08:13:06;;;;;;;0.30;0.30;;;14.10;95.60;;;-141.50;100.00;62695.63;4971128;28;21447;-65
2022/04/21 08:15:35;;;;;;;0.30;0.30;;;14.10;95.80;;;-141.50;100.00;62695.63;4973097;28;20630;-65
2022/04/21 08:18:05;;;;;;;0.30;0.30;;;14.00;95.70;;;-141.50;100.00;62695.63;4969092;28;20689;-63
2022/04/21 08:20:34;;;;;;;0.30;0.30;;;14.10;96.00;;;-141.50;100.00;62695.63;4970419;28;20619;-62
2022/04/21 08:23:04;;;;;;;0.33;0.33;;;14.10;95.40;;;-141.50;100.00;62695.63;4956746;28;20708;-64
2022/04/21 08:34:27;;;;;;;0.33;0.33;;;13.90;95.30;;;-141.50;100.00;62695.63;4971626;28;21282;-63
2022/04/21 08:36:54;;;;;;;0.30;0.20;;;14.00;94.70;;;-141.50;100.00;62695.63;4969843;28;20653;-65
2022/04/21 08:39:23;;;;;;;0.80;0.80;;;14.00;94.30;;;-141.50;100.00;62695.63;4969170;28;20623;-65
2022/04/21 08:41:56;;;;;;;0.40;0.40;;;14.20;94.10;;;-141.50;100.00;62695.63;4968750;28;20634;-65
2022/04/21 08:44:23;;;;;;;0.30;0.30;;;14.40;94.10;;;-141.50;100.00;62695.63;4966558;28;21275;-64
2022/04/21 08:46:50;;;;;;;0.30;0.30;;;14.60;93.60;;;-141.50;100.00;62695.63;4970286;28;20635;-66
2022/04/21 08:49:21;;;;;;;0.33;0.33;;;14.80;93.20;;;-141.50;100.00;62695.63;4972148;28;21153;-66
2022/04/21 08:51:48;;;;;;;0.57;0.57;;;15.00;92.40;;;-141.50;100.00;62695.63;4972272;28;20725;-65
2022/04/21 08:54:16;;;;;;;0.30;0.30;;;15.10;92.20;;;-141.50;100.00;62695.63;4954979;28;20651;-65
2022/04/21 08:56:43;;;;;;;0.30;0.30;;;15.30;91.40;;;-141.50;100.00;62695.63;4972781;28;21196;-65
2022/04/21 08:59:10;;;;;;;4.00;2.13;;;15.60;90.80;;;-141.50;100.00;62695.63;4972105;28;20641;-65
2022/04/21 09:01:37;;;;;;;0.30;0.30;;;16.10;90.10;;;-141.50;100.00;62695.63;4971325;28;20742;-65
2022/04/21 09:04:04;;;;;;;1.27;1.27;;;16.70;87.70;;;-141.50;100.00;62695.63;4970867;28;20659;-65
2022/04/21 09:06:31;;;;;;;0.30;0.30;;;17.60;84.00;;;-141.50;100.00;62695.63;4970229;28;20718;-65
2022/04/21 09:09:16;;;;;;;0.30;0.30;;;18.40;80.40;;;-141.50;100.00;62695.63;4954071;28;20620;-65
2022/04/21 09:11:44;;;;;;;0.30;0.30;;;20.70;71.90;;;-141.50;100.00;62695.63;4970990;28;20787;-65
2022/04/21 09:14:16;;;;;;;0.30;0.30;;;21.80;65.30;;;-141.50;100.00;62695.63;4971180;28;20658;-65
2022/04/21 09:16:45;;;;;;;0.30;0.30;;;21.50;62.30;;;-141.50;100.00;62695.63;4972146;28;20975;-66
2022/04/21 09:19:13;;;;;;;0.30;0.30;;;20.90;62.50;;;-141.50;100.00;62695.63;4969391;28;20631;-65
2022/04/21 09:21:41;;;;;;;0.30;0.30;;;20.20;63.10;;;-141.50;100.00;62695.63;4969086;28;20623;-66
2022/04/21 09:24:29;;;;;;;0.30;0.30;;;19.60;63.90;;;-141.50;100.00;62695.63;4969019;28;20655;-66
2022/04/21 09:26:57;;;;;;;0.30;0.30;;;19.80;64.20;;;-141.50;100.00;62695.63;4964639;28;20634;-68
2022/04/21 09:29:33;;;;;;;0.30;0.30;;;20.20;63.70;;;-141.50;100.00;62695.63;4954535;28;21283;-67
2022/04/21 09:32:03;;;;;;;0.30;0.30;;;20.60;62.20;;;-141.50;100.00;62695.63;4968024;28;20754;-67
2022/04/21 09:34:37;;;;;;;0.30;0.30;;;23.50;57.30;;;-141.50;100.00;62695.63;4971701;28;20809;-68
2022/04/21 09:37:07;;;;;;;0.30;0.30;;;26.30;50.80;;;-141.50;100.00;62695.63;4971669;28;20623;-67
2022/04/21 09:39:41;;;;;;;0.30;0.30;;;27.10;47.70;;;-141.50;100.00;62695.63;4970894;28;20642;-67
2022/04/21 09:42:08;;;;;;;0.30;0.30;;;26.70;47.40;;;-141.50;100.00;62695.63;4954189;28;21067;-67
2022/04/21 09:47:30;;;;;;;0.40;0.30;;;29.10;44.20;;;-141.50;100.00;62695.63;4971203;28;20662;-67
2022/04/21 09:50:10;;;;;;;0.40;0.30;;;31.40;41.50;;;-141.50;100.00;62695.63;4978291;28;20640;-67
2022/04/21 09:52:53;;;;;;;0.40;0.30;;;33.10;38.70;;;-141.50;100.00;62695.63;4984370;28;20674;-67
2022/04/21 09:55:31;;;;;;;0.40;0.30;;;34.80;36.10;;;-141.50;100.00;62695.63;4972254;28;20661;-67
2022/04/21 09:58:07;;;;;;;0.50;0.50;;;34.50;35.10;;;-141.50;100.00;62695.63;4975228;28;20663;-67
2022/04/21 10:00:38;;;;;;;0.40;0.30;;;34.50;35.00;;;-141.50;100.00;62695.63;4971611;28;21082;-65
2022/04/21 10:03:06;;;;;;;0.40;0.30;;;34.50;34.90;;;-141.50;100.00;62695.63;4971835;28;20646;-65
2022/04/21 10:05:35;;;;;;;0.40;0.40;;;35.50;33.90;;;-141.50;100.00;62695.63;4967423;28;20653;-64
2022/04/21 10:08:06;;;;;;;0.40;0.40;;;34.20;34.50;;;-141.50;100.00;62695.63;4975274;28;20628;-66
2022/04/21 10:10:34;;;;;;;0.40;0.30;;;33.00;35.60;;;-141.50;100.00;62695.63;4974153;28;20627;-63
2022/04/21 10:13:04;;;;;;;0.40;0.30;;;33.30;35.50;;;-141.50;100.00;62695.63;4976070;28;20635;-68
2022/04/21 10:15:31;;;;;;;0.40;0.40;;;33.40;35.40;;;-141.50;100.00;62695.63;4974365;28;20641;-66
2022/04/21 10:17:59;;;;;;;0.40;0.30;;;32.70;35.90;;;-141.50;100.00;62695.63;4957746;28;20633;-66
2022/04/21 10:20:29;;;;;;;0.40;0.30;;;33.30;35.30;;;-141.50;100.00;62695.63;4974506;28;20622;-66
2022/04/21 10:22:57;;;;;;;0.40;0.30;;;31.40;35.80;;;-141.50;100.00;62695.63;4957267;28;20732;-66
2022/04/21 10:25:36;;;;;;;0.40;0.40;;;30.50;36.90;;;-141.50;100.00;62695.63;4954529;28;20643;-66
2022/04/21 10:28:42;;;;;;;0.57;0.57;;;30.20;37.30;;;-141.50;100.00;62695.63;4974757;28;20657;-65
2022/04/21 10:31:32;;;;;;;0.40;0.30;;;29.30;38.30;;;-141.50;100.00;62695.63;4973083;28;20697;-65
2022/04/21 10:34:07;;;;;;;0.40;0.30;;;28.50;39.20;;;-141.50;100.00;62695.63;4973522;28;20663;-69
2022/04/21 10:36:50;;;;;;;0.40;0.30;;;26.20;41.00;;;-141.50;100.00;62695.63;4973721;28;21195;-67
2022/04/21 10:39:17;;;;;;;0.50;0.50;;;25.00;43.20;;;-141.50;100.00;62695.63;4964597;28;21019;-67
2022/04/21 10:41:45;;;;;;;0.50;0.50;;;23.50;45.00;;;-141.50;100.00;62695.63;4973379;28;20635;-69
2022/04/21 10:44:16;;;;;;;0.40;0.40;;;22.40;47.00;;;-141.50;100.00;62695.63;4973006;28;20678;-66
2022/04/21 10:46:43;;;;;;;4.63;2.00;;;21.60;47.70;;;-141.50;100.00;62695.63;4946956;28;20646;-66
2022/04/21 10:50:10;;;;;;;0.30;0.30;;;21.40;48.30;;;-141.50;100.00;62695.63;4960724;28;20635;-65